sensor_id;sensor_type;location;lat;lon;timestamp;pressure;altitude;pressure_sealevel;temperature;humidity
20444;BME280;10381;53.730;10.010;2023-04-07T00:02:53;101367.63;;;3.59;100.00
20444;BME280;10381;53.730;10.010;2023-04-07T00:06:53;101366.78;;;3.58;100.00
20444;BME280;10381;53.730;10.010;2023-04-07T00:10:53;101367.31;;;3.48;100.00
20444;BME280;10381;53.730;10.010;2023-04-07T00:14:53;101367.91;;;3.70;100.00
20444;BME280;10381;53.730;10.010;2023-04-07T00:18:54;101362.34;;;3.41;100.00
20444;BME280;10381;53.730;10.010;2023-04-07T00:22:54;101371.81;;;3.27;100.00
20444;BME280;10381;53.730;10.010;2023-04-07T00:26:54;101368.25;;;3.47;100.00
20444;BME280;10381;53.730;10.010;2023-04-07T00:30:55;101369.72;;;3.16;100.00
20444;BME280;10381;53.730;10.010;2023-04-07T00:34:56;101367.56;;;3.24;100.00
20444;BME280;10381;53.730;10.010;2023-04-07T00:38:56;101369.94;;;3.11;100.00
20444;BME280;10381;53.730;10.010;2023-04-07T00:42:56;101378.34;;;3.18;100.00
20444;BME280;10381;53.730;10.010;2023-04-07T00:46:57;101373.56;;;3.09;100.00
20444;BME280;10381;53.730;10.010;2023-04-07T00:50:58;101375.03;;;2.95;100.00
20444;BME280;10381;53.730;10.010;2023-04-07T00:54:58;101372.56;;;2.92;100.00
20444;BME280;10381;53.730;10.010;2023-04-07T00:58:59;101375.25;;;2.91;100.00
20444;BME280;10381;53.730;10.010;2023-04-07T01:03:08;101361.34;;;2.71;100.00
20444;BME280;10381;53.730;10.010;2023-04-07T01:07:34;101363.13;;;2.71;100.00
20444;BME280;10381;53.730;10.010;2023-04-07T01:11:55;101364.66;;;2.56;100.00
20444;BME280;10381;53.730;10.010;2023-04-07T01:16:03;101370.75;;;2.56;100.00
20444;BME280;10381;53.730;10.010;2023-04-07T01:20:04;101369.06;;;2.55;100.00
20444;BME280;10381;53.730;10.010;2023-04-07T01:28:38;101367.44;;;2.53;100.00
20444;BME280;10381;53.730;10.010;2023-04-07T01:32:42;101368.53;;;2.47;100.00
20444;BME280;10381;53.730;10.010;2023-04-07T01:36:45;101363.19;;;2.50;100.00
20444;BME280;10381;53.730;10.010;2023-04-07T01:40:46;101363.88;;;2.54;100.00
20444;BME280;10381;53.730;10.010;2023-04-07T01:44:48;101370.47;;;2.63;100.00
20444;BME280;10381;53.730;10.010;2023-04-07T01:48:50;101372.72;;;2.51;100.00
20444;BME280;10381;53.730;10.010;2023-04-07T01:52:51;101371.16;;;2.47;100.00
20444;BME280;10381;53.730;10.010;2023-04-07T01:56:52;101370.59;;;2.41;100.00
20444;BME280;10381;53.730;10.010;2023-04-07T02:00:52;101370.16;;;2.50;100.00
20444;BME280;10381;53.730;10.010;2023-04-07T02:04:57;101372.28;;;2.42;100.00
20444;BME280;10381;53.730;10.010;2023-04-07T02:09:04;101375.75;;;2.42;100.00
20444;BME280;10381;53.730;10.010;2023-04-07T02:13:07;101368.63;;;2.46;100.00
20444;BME280;10381;53.730;10.010;2023-04-07T02:17:09;101379.56;;;2.35;100.00
20444;BME280;10381;53.730;10.010;2023-04-07T02:21:11;101372.19;;;2.24;100.00
20444;BME280;10381;53.730;10.010;2023-04-07T02:25:30;101372.63;;;2.34;100.00
20444;BME280;10381;53.730;10.010;2023-04-07T02:29:31;101372.06;;;2.27;100.00
20444;BME280;10381;53.730;10.010;2023-04-07T02:33:31;101378.13;;;2.28;100.00
20444;BME280;10381;53.730;10.010;2023-04-07T02:37:31;101378.41;;;2.22;100.00
20444;BME280;10381;53.730;10.010;2023-04-07T02:41:32;101381.94;;;2.21;100.00
20444;BME280;10381;53.730;10.010;2023-04-07T02:45:32;101390.66;;;2.40;100.00
20444;BME280;10381;53.730;10.010;2023-04-07T02:49:32;101384.97;;;2.30;100.00
20444;BME280;10381;53.730;10.010;2023-04-07T02:53:33;101389.97;;;2.37;100.00
20444;BME280;10381;53.730;10.010;2023-04-07T02:57:33;101389.97;;;2.37;100.00
20444;BME280;10381;53.730;10.010;2023-04-07T03:01:33;101394.34;;;2.36;100.00
20444;BME280;10381;53.730;10.010;2023-04-07T03:05:35;101388.81;;;2.42;100.00
20444;BME280;10381;53.730;10.010;2023-04-07T03:09:35;101396.38;;;2.29;100.00
20444;BME280;10381;53.730;10.010;2023-04-07T03:13:35;101385.72;;;2.13;100.00
20444;BME280;10381;53.730;10.010;2023-04-07T03:17:36;101392.78;;;2.11;100.00
20444;BME280;10381;53.730;10.010;2023-04-07T03:21:37;101391.25;;;2.07;100.00
20444;BME280;10381;53.730;10.010;2023-04-07T03:25:37;101386.91;;;2.06;100.00
20444;BME280;10381;53.730;10.010;2023-04-07T03:29:37;101398.72;;;1.95;100.00
20444;BME280;10381;53.730;10.010;2023-04-07T03:33:38;101390.59;;;2.02;100.00
20444;BME280;10381;53.730;10.010;2023-04-07T03:37:38;101392.78;;;2.11;100.00
20444;BME280;10381;53.730;10.010;2023-04-07T03:41:38;101411.06;;;2.11;100.00
20444;BME280;10381;53.730;10.010;2023-04-07T03:45:39;101405.81;;;1.92;100.00
20444;BME280;10381;53.730;10.010;2023-04-07T03:49:39;101413.19;;;2.03;100.00
20444;BME280;10381;53.730;10.010;2023-04-07T03:53:40;101404.69;;;1.98;100.00
20444;BME280;10381;53.730;10.010;2023-04-07T03:57:40;101425.47;;;2.01;100.00
20444;BME280;10381;53.730;10.010;2023-04-07T04:01:40;101429.00;;;2.00;100.00
20444;BME280;10381;53.730;10.010;2023-04-07T04:05:41;101430.16;;;1.93;100.00
20444;BME280;10381;53.730;10.010;2023-04-07T04:09:41;101428.34;;;1.95;100.00
20444;BME280;10381;53.730;10.010;2023-04-07T04:13:41;101433.31;;;1.81;100.00
20444;BME280;10381;53.730;10.010;2023-04-07T04:17:41;101437.59;;;1.61;100.00
20444;BME280;10381;53.730;10.010;2023-04-07T04:21:42;101426.47;;;1.34;100.00
20444;BME280;10381;53.730;10.010;2023-04-07T04:25:42;101424.75;;;1.11;100.00
20444;BME280;10381;53.730;10.010;2023-04-07T04:29:42;101435.44;;;1.05;100.00
20444;BME280;10381;53.730;10.010;2023-04-07T04:33:42;101433.84;;;1.01;100.00
20444;BME280;10381;53.730;10.010;2023-04-07T04:37:43;101438.50;;;0.93;100.00
20444;BME280;10381;53.730;10.010;2023-04-07T04:41:44;101449.28;;;0.83;100.00
20444;BME280;10381;53.730;10.010;2023-04-07T04:45:44;101449.44;;;0.79;100.00
20444;BME280;10381;53.730;10.010;2023-04-07T04:49:44;101455.59;;;0.78;100.00
20444;BME280;10381;53.730;10.010;2023-04-07T04:53:45;101455.75;;;0.73;100.00
20444;BME280;10381;53.730;10.010;2023-04-07T04:57:45;101471.06;;;0.82;100.00
20444;BME280;10381;53.730;10.010;2023-04-07T05:01:45;101470.78;;;0.90;100.00
20444;BME280;10381;53.730;10.010;2023-04-07T05:05:46;101478.53;;;1.15;100.00
20444;BME280;10381;53.730;10.010;2023-04-07T05:09:47;101477.69;;;1.59;100.00
20444;BME280;10381;53.730;10.010;2023-04-07T05:13:47;101482.34;;;1.95;100.00
20444;BME280;10381;53.730;10.010;2023-04-07T05:17:48;101483.78;;;2.24;100.00
20444;BME280;10381;53.730;10.010;2023-04-07T05:21:49;101491.59;;;2.44;100.00
20444;BME280;10381;53.730;10.010;2023-04-07T05:25:49;101491.31;;;2.71;100.00
20444;BME280;10381;53.730;10.010;2023-04-07T05:29:50;101490.00;;;3.00;100.00
20444;BME280;10381;53.730;10.010;2023-04-07T05:33:50;101497.25;;;3.33;100.00
20444;BME280;10381;53.730;10.010;2023-04-07T05:37:51;101496.81;;;3.42;100.00
20444;BME280;10381;53.730;10.010;2023-04-07T05:41:51;101502.56;;;3.68;100.00
20444;BME280;10381;53.730;10.010;2023-04-07T05:45:51;101520.16;;;4.02;100.00
20444;BME280;10381;53.730;10.010;2023-04-07T05:49:52;101521.84;;;4.20;100.00
20444;BME280;10381;53.730;10.010;2023-04-07T05:53:52;101516.81;;;4.51;100.00
20444;BME280;10381;53.730;10.010;2023-04-07T05:57:52;101531.88;;;4.64;100.00
20444;BME280;10381;53.730;10.010;2023-04-07T06:01:52;101535.47;;;5.12;100.00
20444;BME280;10381;53.730;10.010;2023-04-07T06:05:53;101540.31;;;5.20;100.00
20444;BME280;10381;53.730;10.010;2023-04-07T06:09:53;101538.75;;;5.65;100.00
20444;BME280;10381;53.730;10.010;2023-04-07T06:13:53;101547.28;;;5.69;100.00
20444;BME280;10381;53.730;10.010;2023-04-07T06:17:53;101558.47;;;5.57;100.00
20444;BME280;10381;53.730;10.010;2023-04-07T06:21:54;101551.66;;;5.21;100.00
20444;BME280;10381;53.730;10.010;2023-04-07T06:25:54;101559.84;;;5.15;100.00
20444;BME280;10381;53.730;10.010;2023-04-07T06:29:55;101566.13;;;5.12;100.00
20444;BME280;10381;53.730;10.010;2023-04-07T06:33:55;101568.44;;;5.18;100.00
20444;BME280;10381;53.730;10.010;2023-04-07T06:37:56;101569.81;;;5.25;100.00
20444;BME280;10381;53.730;10.010;2023-04-07T06:41:56;101572.72;;;5.37;100.00
20444;BME280;10381;53.730;10.010;2023-04-07T06:45:57;101580.84;;;5.48;100.00
20444;BME280;10381;53.730;10.010;2023-04-07T06:49:57;101581.56;;;5.83;100.00
20444;BME280;10381;53.730;10.010;2023-04-07T06:53:57;101586.47;;;6.05;100.00
20444;BME280;10381;53.730;10.010;2023-04-07T06:57:57;101590.91;;;6.21;100.00
20444;BME280;10381;53.730;10.010;2023-04-07T07:01:58;101590.53;;;6.11;100.00
20444;BME280;10381;53.730;10.010;2023-04-07T07:05:58;101601.44;;;6.35;100.00
20444;BME280;10381;53.730;10.010;2023-04-07T07:09:59;101594.50;;;6.64;100.00
20444;BME280;10381;53.730;10.010;2023-04-07T07:13:59;101604.47;;;6.73;100.00
20444;BME280;10381;53.730;10.010;2023-04-07T07:18:00;101599.50;;;6.83;99.38
20444;BME280;10381;53.730;10.010;2023-04-07T07:22:00;101593.13;;;7.01;96.54
20444;BME280;10381;53.730;10.010;2023-04-07T07:26:03;101595.50;;;7.06;95.01
20444;BME280;10381;53.730;10.010;2023-04-07T07:30:04;101602.94;;;7.28;93.30
20444;BME280;10381;53.730;10.010;2023-04-07T07:34:05;101606.06;;;7.35;92.12
20444;BME280;10381;53.730;10.010;2023-04-07T07:38:05;101602.72;;;7.60;91.15
20444;BME280;10381;53.730;10.010;2023-04-07T07:42:06;101604.91;;;7.67;91.00
20444;BME280;10381;53.730;10.010;2023-04-07T07:46:06;101614.59;;;7.53;86.69
20444;BME280;10381;53.730;10.010;2023-04-07T07:50:07;101625.03;;;7.68;87.77
20444;BME280;10381;53.730;10.010;2023-04-07T07:54:07;101619.91;;;7.94;89.28
20444;BME280;10381;53.730;10.010;2023-04-07T07:58:08;101630.06;;;8.00;91.79
20444;BME280;10381;53.730;10.010;2023-04-07T08:02:09;101626.69;;;7.84;90.33
20444;BME280;10381;53.730;10.010;2023-04-07T08:06:09;101627.63;;;7.97;93.55
20444;BME280;10381;53.730;10.010;2023-04-07T08:10:11;101644.69;;;8.06;91.50
20444;BME280;10381;53.730;10.010;2023-04-07T08:14:11;101640.09;;;8.22;89.23
20444;BME280;10381;53.730;10.010;2023-04-07T08:18:12;101639.03;;;8.25;86.89
20444;BME280;10381;53.730;10.010;2023-04-07T08:22:15;101648.47;;;8.29;86.26
20444;BME280;10381;53.730;10.010;2023-04-07T08:26:31;101639.91;;;8.52;90.19
20444;BME280;10381;53.730;10.010;2023-04-07T08:30:32;101642.97;;;9.12;84.54
20444;BME280;10381;53.730;10.010;2023-04-07T08:34:32;101650.47;;;8.92;82.83
20444;BME280;10381;53.730;10.010;2023-04-07T08:38:32;101647.41;;;8.99;80.20
20444;BME280;10381;53.730;10.010;2023-04-07T08:42:33;101652.25;;;8.92;80.99
20444;BME280;10381;53.730;10.010;2023-04-07T08:46:37;101653.66;;;9.23;80.98
20444;BME280;10381;53.730;10.010;2023-04-07T08:50:38;101644.56;;;9.27;79.51
20444;BME280;10381;53.730;10.010;2023-04-07T08:54:39;101647.41;;;9.37;77.44
20444;BME280;10381;53.730;10.010;2023-04-07T08:58:40;101648.44;;;9.47;75.79
20444;BME280;10381;53.730;10.010;2023-04-07T09:02:42;101654.50;;;9.36;74.10
20444;BME280;10381;53.730;10.010;2023-04-07T09:06:44;101657.03;;;9.51;75.94
20444;BME280;10381;53.730;10.010;2023-04-07T09:10:44;101660.00;;;9.33;72.89
20444;BME280;10381;53.730;10.010;2023-04-07T09:14:45;101644.53;;;9.66;75.15
20444;BME280;10381;53.730;10.010;2023-04-07T09:18:45;101655.44;;;9.35;71.62
20444;BME280;10381;53.730;10.010;2023-04-07T09:22:46;101657.88;;;9.38;72.57
20444;BME280;10381;53.730;10.010;2023-04-07T09:26:46;101660.63;;;9.63;72.38
20444;BME280;10381;53.730;10.010;2023-04-07T09:30:54;101648.56;;;9.33;69.82
20444;BME280;10381;53.730;10.010;2023-04-07T09:34:57;101645.19;;;9.44;69.00
20444;BME280;10381;53.730;10.010;2023-04-07T09:39:07;101644.66;;;9.88;68.88
20444;BME280;10381;53.730;10.010;2023-04-07T09:43:14;101639.50;;;9.87;68.95
20444;BME280;10381;53.730;10.010;2023-04-07T09:47:16;101637.00;;;9.72;68.73
20444;BME280;10381;53.730;10.010;2023-04-07T09:51:17;101651.31;;;9.44;67.49
20444;BME280;10381;53.730;10.010;2023-04-07T09:55:21;101639.38;;;9.38;65.10
20444;BME280;10381;53.730;10.010;2023-04-07T09:59:22;101639.47;;;9.37;67.03
20444;BME280;10381;53.730;10.010;2023-04-07T10:03:22;101643.91;;;9.62;68.24
20444;BME280;10381;53.730;10.010;2023-04-07T10:07:23;101646.53;;;9.75;69.36
20444;BME280;10381;53.730;10.010;2023-04-07T10:11:23;101642.34;;;9.84;72.23
20444;BME280;10381;53.730;10.010;2023-04-07T10:15:24;101638.75;;;9.85;72.13
20444;BME280;10381;53.730;10.010;2023-04-07T10:19:25;101656.78;;;9.67;69.06
20444;BME280;10381;53.730;10.010;2023-04-07T10:23:36;101657.75;;;9.66;71.71
20444;BME280;10381;53.730;10.010;2023-04-07T10:27:43;101649.63;;;10.06;72.00
20444;BME280;10381;53.730;10.010;2023-04-07T10:31:49;101653.72;;;10.10;73.47
20444;BME280;10381;53.730;10.010;2023-04-07T10:36:04;101655.00;;;10.04;70.65
20444;BME280;10381;53.730;10.010;2023-04-07T10:44:50;101651.19;;;9.58;69.57
20444;BME280;10381;53.730;10.010;2023-04-07T10:49:08;101651.75;;;9.51;68.72
20444;BME280;10381;53.730;10.010;2023-04-07T10:53:13;101655.44;;;9.61;70.32
20444;BME280;10381;53.730;10.010;2023-04-07T10:57:14;101648.59;;;10.19;73.34
20444;BME280;10381;53.730;10.010;2023-04-07T11:01:16;101659.34;;;10.05;71.70
20444;BME280;10381;53.730;10.010;2023-04-07T11:05:21;101657.19;;;9.73;79.81
20444;BME280;10381;53.730;10.010;2023-04-07T11:09:22;101654.38;;;9.64;79.76
20444;BME280;10381;53.730;10.010;2023-04-07T11:13:22;101650.47;;;9.44;81.87
20444;BME280;10381;53.730;10.010;2023-04-07T11:17:23;101651.31;;;9.06;81.52
20444;BME280;10381;53.730;10.010;2023-04-07T11:21:23;101661.91;;;9.44;82.63
20444;BME280;10381;53.730;10.010;2023-04-07T11:25:23;101661.00;;;9.82;85.04
20444;BME280;10381;53.730;10.010;2023-04-07T11:29:28;101654.31;;;9.76;82.50
20444;BME280;10381;53.730;10.010;2023-04-07T11:33:30;101660.81;;;9.72;81.54
20444;BME280;10381;53.730;10.010;2023-04-07T11:37:31;101662.44;;;9.36;77.68
20444;BME280;10381;53.730;10.010;2023-04-07T11:41:32;101668.56;;;9.24;76.86
20444;BME280;10381;53.730;10.010;2023-04-07T11:45:32;101660.50;;;9.26;77.24
20444;BME280;10381;53.730;10.010;2023-04-07T11:49:33;101663.16;;;9.26;78.14
20444;BME280;10381;53.730;10.010;2023-04-07T11:53:34;101678.41;;;9.22;75.46
20444;BME280;10381;53.730;10.010;2023-04-07T11:57:37;101674.28;;;9.05;76.63
20444;BME280;10381;53.730;10.010;2023-04-07T12:01:39;101679.03;;;9.13;78.98
20444;BME280;10381;53.730;10.010;2023-04-07T12:05:42;101679.03;;;9.51;81.08
20444;BME280;10381;53.730;10.010;2023-04-07T12:09:42;101691.19;;;9.28;77.02
20444;BME280;10381;53.730;10.010;2023-04-07T12:13:42;101690.66;;;9.23;75.74
20444;BME280;10381;53.730;10.010;2023-04-07T12:17:44;101686.19;;;8.85;69.88
20444;BME280;10381;53.730;10.010;2023-04-07T12:21:48;101688.25;;;8.80;76.27
20444;BME280;10381;53.730;10.010;2023-04-07T12:25:48;101684.84;;;8.92;77.52
20444;BME280;10381;53.730;10.010;2023-04-07T12:29:48;101688.47;;;8.77;75.93
20444;BME280;10381;53.730;10.010;2023-04-07T12:33:49;101684.63;;;8.95;81.95
20444;BME280;10381;53.730;10.010;2023-04-07T12:37:49;101684.19;;;9.02;81.67
20444;BME280;10381;53.730;10.010;2023-04-07T12:41:51;101680.19;;;9.09;83.59
20444;BME280;10381;53.730;10.010;2023-04-07T12:45:52;101686.53;;;9.06;85.37
20444;BME280;10381;53.730;10.010;2023-04-07T12:49:52;101686.03;;;9.14;92.15
20444;BME280;10381;53.730;10.010;2023-04-07T12:53:52;101679.97;;;9.37;87.47
20444;BME280;10381;53.730;10.010;2023-04-07T12:57:53;101687.91;;;9.12;87.20
20444;BME280;10381;53.730;10.010;2023-04-07T13:01:54;101681.78;;;9.24;92.86
20444;BME280;10381;53.730;10.010;2023-04-07T13:05:55;101685.69;;;9.18;97.81
20444;BME280;10381;53.730;10.010;2023-04-07T13:09:55;101681.97;;;9.08;96.60
20444;BME280;10381;53.730;10.010;2023-04-07T13:13:56;101677.25;;;9.26;96.67
20444;BME280;10381;53.730;10.010;2023-04-07T13:17:57;101690.25;;;9.29;94.12
20444;BME280;10381;53.730;10.010;2023-04-07T13:21:57;101679.69;;;9.29;100.00
20444;BME280;10381;53.730;10.010;2023-04-07T13:25:58;101685.81;;;9.17;91.89
20444;BME280;10381;53.730;10.010;2023-04-07T13:29:58;101688.31;;;9.06;90.31
20444;BME280;10381;53.730;10.010;2023-04-07T13:33:58;101692.03;;;9.16;97.05
20444;BME280;10381;53.730;10.010;2023-04-07T13:37:58;101684.16;;;8.89;98.42
20444;BME280;10381;53.730;10.010;2023-04-07T13:41:59;101676.69;;;9.08;100.00
20444;BME280;10381;53.730;10.010;2023-04-07T13:46:00;101681.09;;;8.42;100.00
20444;BME280;10381;53.730;10.010;2023-04-07T13:50:01;101678.72;;;8.65;100.00
20444;BME280;10381;53.730;10.010;2023-04-07T13:54:01;101672.75;;;8.88;100.00
20444;BME280;10381;53.730;10.010;2023-04-07T13:58:02;101674.78;;;9.23;100.00
20444;BME280;10381;53.730;10.010;2023-04-07T14:02:02;101668.13;;;9.05;100.00
20444;BME280;10381;53.730;10.010;2023-04-07T14:06:02;101672.69;;;9.28;100.00
20444;BME280;10381;53.730;10.010;2023-04-07T14:10:03;101674.78;;;8.58;100.00
20444;BME280;10381;53.730;10.010;2023-04-07T14:14:03;101668.53;;;8.86;100.00
20444;BME280;10381;53.730;10.010;2023-04-07T14:18:04;101669.50;;;9.23;100.00
20444;BME280;10381;53.730;10.010;2023-04-07T14:22:05;101672.06;;;9.12;100.00
20444;BME280;10381;53.730;10.010;2023-04-07T14:26:08;101679.13;;;9.50;100.00
20444;BME280;10381;53.730;10.010;2023-04-07T14:30:09;101681.97;;;9.21;100.00
20444;BME280;10381;53.730;10.010;2023-04-07T14:34:11;101672.59;;;9.17;100.00
20444;BME280;10381;53.730;10.010;2023-04-07T14:38:11;101668.63;;;8.84;100.00
20444;BME280;10381;53.730;10.010;2023-04-07T14:42:12;101673.03;;;9.24;100.00
20444;BME280;10381;53.730;10.010;2023-04-07T14:46:12;101687.41;;;9.20;100.00
20444;BME280;10381;53.730;10.010;2023-04-07T14:50:13;101686.81;;;8.89;100.00
20444;BME280;10381;53.730;10.010;2023-04-07T14:54:14;101681.34;;;9.05;100.00
20444;BME280;10381;53.730;10.010;2023-04-07T14:58:14;101688.28;;;8.53;100.00
20444;BME280;10381;53.730;10.010;2023-04-07T15:02:14;101703.09;;;8.14;100.00
20444;BME280;10381;53.730;10.010;2023-04-07T15:06:15;101712.34;;;7.93;100.00
20444;BME280;10381;53.730;10.010;2023-04-07T15:10:15;101711.31;;;7.95;100.00
20444;BME280;10381;53.730;10.010;2023-04-07T15:14:17;101705.88;;;7.55;100.00
20444;BME280;10381;53.730;10.010;2023-04-07T15:18:17;101710.75;;;7.90;100.00
20444;BME280;10381;53.730;10.010;2023-04-07T15:22:17;101706.81;;;8.93;100.00
20444;BME280;10381;53.730;10.010;2023-04-07T15:26:18;101719.13;;;8.80;100.00
20444;BME280;10381;53.730;10.010;2023-04-07T15:30:18;101722.34;;;7.87;100.00
20444;BME280;10381;53.730;10.010;2023-04-07T15:34:18;101711.00;;;6.83;100.00
20444;BME280;10381;53.730;10.010;2023-04-07T15:38:19;101719.38;;;6.44;100.00
20444;BME280;10381;53.730;10.010;2023-04-07T15:42:19;101719.81;;;6.52;100.00
20444;BME280;10381;53.730;10.010;2023-04-07T15:46:19;101717.34;;;6.33;100.00
20444;BME280;10381;53.730;10.010;2023-04-07T15:50:20;101717.94;;;6.07;100.00
20444;BME280;10381;53.730;10.010;2023-04-07T15:54:20;101713.28;;;6.12;100.00
20444;BME280;10381;53.730;10.010;2023-04-07T15:58:21;101725.25;;;6.33;100.00
20444;BME280;10381;53.730;10.010;2023-04-07T16:02:21;101740.19;;;6.17;100.00
20444;BME280;10381;53.730;10.010;2023-04-07T16:06:21;101720.56;;;6.07;100.00
20444;BME280;10381;53.730;10.010;2023-04-07T16:10:22;101727.78;;;5.86;100.00
20444;BME280;10381;53.730;10.010;2023-04-07T16:14:22;101739.03;;;5.72;100.00
20444;BME280;10381;53.730;10.010;2023-04-07T16:18:23;101739.56;;;5.79;100.00
20444;BME280;10381;53.730;10.010;2023-04-07T16:22:23;101736.75;;;5.66;100.00
20444;BME280;10381;53.730;10.010;2023-04-07T16:26:24;101739.91;;;5.72;100.00
20444;BME280;10381;53.730;10.010;2023-04-07T16:30:25;101749.41;;;5.75;100.00
20444;BME280;10381;53.730;10.010;2023-04-07T16:34:25;101746.03;;;5.55;100.00
20444;BME280;10381;53.730;10.010;2023-04-07T16:38:25;101746.44;;;5.48;100.00
20444;BME280;10381;53.730;10.010;2023-04-07T16:42:28;101758.66;;;5.31;100.00
20444;BME280;10381;53.730;10.010;2023-04-07T16:46:28;101760.16;;;5.20;100.00
20444;BME280;10381;53.730;10.010;2023-04-07T16:50:29;101766.63;;;5.12;100.00
20444;BME280;10381;53.730;10.010;2023-04-07T16:54:29;101766.91;;;5.06;100.00
20444;BME280;10381;53.730;10.010;2023-04-07T16:58:29;101771.56;;;5.01;100.00
20444;BME280;10381;53.730;10.010;2023-04-07T17:02:30;101787.75;;;4.92;100.00
20444;BME280;10381;53.730;10.010;2023-04-07T17:06:30;101791.91;;;4.79;100.00
20444;BME280;10381;53.730;10.010;2023-04-07T17:10:30;101798.69;;;4.83;100.00
20444;BME280;10381;53.730;10.010;2023-04-07T17:14:30;101802.25;;;4.82;100.00
20444;BME280;10381;53.730;10.010;2023-04-07T17:18:32;101809.41;;;4.78;100.00
20444;BME280;10381;53.730;10.010;2023-04-07T17:22:32;101814.41;;;4.65;100.00
20444;BME280;10381;53.730;10.010;2023-04-07T17:26:33;101826.25;;;4.55;100.00
20444;BME280;10381;53.730;10.010;2023-04-07T17:30:34;101846.69;;;4.48;100.00
20444;BME280;10381;53.730;10.010;2023-04-07T17:34:35;101845.19;;;4.43;100.00
20444;BME280;10381;53.730;10.010;2023-04-07T17:38:36;101855.91;;;4.38;100.00
20444;BME280;10381;53.730;10.010;2023-04-07T17:42:36;101855.75;;;4.41;100.00
20444;BME280;10381;53.730;10.010;2023-04-07T17:46:37;101853.34;;;4.37;100.00
20444;BME280;10381;53.730;10.010;2023-04-07T17:50:38;101858.72;;;4.34;100.00
20444;BME280;10381;53.730;10.010;2023-04-07T17:54:38;101860.63;;;4.30;100.00
20444;BME280;10381;53.730;10.010;2023-04-07T17:58:38;101875.47;;;4.31;100.00
20444;BME280;10381;53.730;10.010;2023-04-07T18:02:39;101885.13;;;4.31;100.00
20444;BME280;10381;53.730;10.010;2023-04-07T18:06:40;101896.38;;;4.33;100.00
20444;BME280;10381;53.730;10.010;2023-04-07T18:10:40;101898.69;;;4.20;100.00
20444;BME280;10381;53.730;10.010;2023-04-07T18:14:41;101897.97;;;4.16;100.00
20444;BME280;10381;53.730;10.010;2023-04-07T18:18:42;101895.56;;;4.12;100.00
20444;BME280;10381;53.730;10.010;2023-04-07T18:22:42;101897.38;;;4.10;100.00
20444;BME280;10381;53.730;10.010;2023-04-07T18:26:43;101910.56;;;4.08;100.00
20444;BME280;10381;53.730;10.010;2023-04-07T18:30:43;101909.66;;;4.09;100.00
20444;BME280;10381;53.730;10.010;2023-04-07T18:34:47;101921.69;;;4.13;100.00
20444;BME280;10381;53.730;10.010;2023-04-07T18:38:47;101918.56;;;4.05;100.00
20444;BME280;10381;53.730;10.010;2023-04-07T18:42:47;101932.31;;;4.10;100.00
20444;BME280;10381;53.730;10.010;2023-04-07T18:46:48;101930.56;;;4.11;100.00
20444;BME280;10381;53.730;10.010;2023-04-07T18:50:49;101935.75;;;4.12;100.00
20444;BME280;10381;53.730;10.010;2023-04-07T18:54:51;101939.00;;;4.17;100.00
20444;BME280;10381;53.730;10.010;2023-04-07T18:58:51;101937.31;;;4.16;100.00
20444;BME280;10381;53.730;10.010;2023-04-07T19:02:52;101938.16;;;4.17;100.00
20444;BME280;10381;53.730;10.010;2023-04-07T19:06:53;101936.25;;;4.20;100.00
20444;BME280;10381;53.730;10.010;2023-04-07T19:10:53;101944.91;;;4.22;100.00
20444;BME280;10381;53.730;10.010;2023-04-07T19:14:53;101939.53;;;4.25;100.00
20444;BME280;10381;53.730;10.010;2023-04-07T19:18:55;101945.75;;;4.23;100.00
20444;BME280;10381;53.730;10.010;2023-04-07T19:22:56;101942.22;;;4.24;100.00
20444;BME280;10381;53.730;10.010;2023-04-07T19:26:56;101948.31;;;4.24;100.00
20444;BME280;10381;53.730;10.010;2023-04-07T19:30:56;101948.06;;;4.31;100.00
20444;BME280;10381;53.730;10.010;2023-04-07T19:34:57;101941.94;;;4.30;100.00
20444;BME280;10381;53.730;10.010;2023-04-07T19:38:57;101941.84;;;4.33;100.00
20444;BME280;10381;53.730;10.010;2023-04-07T19:43:01;101936.59;;;4.33;100.00
20444;BME280;10381;53.730;10.010;2023-04-07T19:47:01;101941.91;;;4.32;100.00
20444;BME280;10381;53.730;10.010;2023-04-07T19:51:02;101945.44;;;4.31;100.00
20444;BME280;10381;53.730;10.010;2023-04-07T19:55:02;101948.06;;;4.31;100.00
20444;BME280;10381;53.730;10.010;2023-04-07T19:59:02;101953.53;;;4.26;100.00
20444;BME280;10381;53.730;10.010;2023-04-07T20:03:03;101965.75;;;4.25;100.00
20444;BME280;10381;53.730;10.010;2023-04-07T20:07:04;101953.81;;;4.18;100.00
20444;BME280;10381;53.730;10.010;2023-04-07T20:11:05;101962.63;;;4.17;100.00
20444;BME280;10381;53.730;10.010;2023-04-07T20:15:10;101963.66;;;4.13;100.00
20444;BME280;10381;53.730;10.010;2023-04-07T20:19:10;101960.13;;;4.14;100.00
20444;BME280;10381;53.730;10.010;2023-04-07T20:23:11;101958.59;;;4.09;100.00
20444;BME280;10381;53.730;10.010;2023-04-07T20:27:12;101963.84;;;4.09;100.00
20444;BME280;10381;53.730;10.010;2023-04-07T20:31:12;101970.97;;;4.07;100.00
20444;BME280;10381;53.730;10.010;2023-04-07T20:35:12;101975.59;;;4.00;100.00
20444;BME280;10381;53.730;10.010;2023-04-07T20:39:13;101980.72;;;4.03;100.00
20444;BME280;10381;53.730;10.010;2023-04-07T20:43:13;101980.84;;;4.00;100.00
20444;BME280;10381;53.730;10.010;2023-04-07T20:47:17;101978.22;;;4.00;100.00
20444;BME280;10381;53.730;10.010;2023-04-07T20:51:17;101981.63;;;4.02;100.00
20444;BME280;10381;53.730;10.010;2023-04-07T20:55:17;101984.25;;;4.02;100.00
20444;BME280;10381;53.730;10.010;2023-04-07T20:59:17;101994.75;;;4.02;100.00